Time;durP1;ratioP1;P1;durP2;ratioP2;P2;SDS_P1;SDS_P2;PMS_P1;PMS_P2;Temp;Humidity;BMP_temperature;BMP_pressure;BME280_temperature;BME280_humidity;BME280_pressure;Samples;Min_cycle;Max_cycle;Signal;HPM_P1;HPM_P2
2021/03/25 00:02:17;;;;;;;1.80;1.33;;;20.20;63.60;;;;;;5094808;28;20023;-37
2021/03/25 00:04:43;;;;;;;2.00;1.65;;;20.20;63.60;;;;;;5086203;28;20722;-37
2021/03/25 00:07:09;;;;;;;2.17;1.70;;;20.20;63.50;;;;;;5086065;28;20059;-38
2021/03/25 00:09:39;;;;;;;2.03;1.70;;;20.20;63.50;;;;;;5085889;28;20027;-38
2021/03/25 00:12:07;;;;;;;1.42;1.30;;;20.20;63.50;;;;;;5086353;28;20036;-38
2021/03/25 00:14:33;;;;;;;1.63;1.52;;;20.20;63.40;;;;;;5084731;28;20028;-38
2021/03/25 00:16:59;;;;;;;1.52;1.42;;;20.20;63.40;;;;;;5085491;28;20082;-38
2021/03/25 00:19:25;;;;;;;1.75;1.60;;;20.20;63.40;;;;;;5085762;28;20024;-38
2021/03/25 00:21:51;;;;;;;1.98;1.77;;;20.30;63.40;;;;;;5097485;28;20012;-38
2021/03/25 00:24:18;;;;;;;1.92;1.75;;;20.20;63.30;;;;;;5085766;28;20047;-37
2021/03/25 00:26:44;;;;;;;2.17;1.60;;;20.30;63.40;;;;;;5085760;28;20028;-38
2021/03/25 00:29:14;;;;;;;1.50;1.40;;;20.30;63.50;;;;;;5085568;28;20098;-37
2021/03/25 00:31:41;;;;;;;1.63;1.52;;;20.20;63.40;;;;;;5085879;28;20113;-39
2021/03/25 00:34:07;;;;;;;1.95;1.70;;;20.20;63.40;;;;;;5085029;28;20020;-38
2021/03/25 00:36:34;;;;;;;2.40;1.90;;;20.20;63.40;;;;;;5087923;28;20029;-38
2021/03/25 00:39:00;;;;;;;2.40;1.58;;;20.20;63.30;;;;;;5085420;28;20266;-38
2021/03/25 00:41:26;;;;;;;1.75;1.50;;;20.20;63.40;;;;;;5085591;28;20393;-38
2021/03/25 00:43:53;;;;;;;2.15;1.70;;;20.20;63.30;;;;;;5085672;28;20039;-38
2021/03/25 00:46:21;;;;;;;2.17;1.80;;;20.20;63.20;;;;;;5085551;28;20037;-37
2021/03/25 00:48:48;;;;;;;1.52;1.40;;;20.20;63.20;;;;;;5085393;28;20036;-39
2021/03/25 00:51:14;;;;;;;1.90;1.80;;;20.20;63.20;;;;;;5089818;28;20035;-38
2021/03/25 00:53:40;;;;;;;1.55;1.45;;;20.20;63.20;;;;;;5089840;28;20028;-38
2021/03/25 00:56:07;;;;;;;1.42;1.33;;;20.20;63.10;;;;;;5085349;28;20048;-38
2021/03/25 00:58:33;;;;;;;1.60;1.50;;;20.20;63.10;;;;;;5083934;28;20091;-37
2021/03/25 01:01:00;;;;;;;2.33;1.60;;;20.20;63.00;;;;;;5084100;28;20028;-38
2021/03/25 01:03:26;;;;;;;1.80;1.67;;;20.20;63.00;;;;;;5065474;28;20064;-38
2021/03/25 01:05:53;;;;;;;1.40;1.03;;;20.20;63.00;;;;;;5065195;28;20041;-39
2021/03/25 01:08:19;;;;;;;2.22;1.70;;;20.20;63.00;;;;;;5065019;28;20329;-38
2021/03/25 01:10:59;;;;;;;2.10;1.75;;;20.20;63.00;;;;;;5064849;28;20426;-38
2021/03/25 01:13:25;;;;;;;1.92;1.73;;;20.10;63.00;;;;;;5064894;28;20024;-38
2021/03/25 01:15:51;;;;;;;2.00;1.80;;;20.10;63.00;;;;;;5064997;28;20024;-38
2021/03/25 01:18:18;;;;;;;2.08;1.83;;;20.10;63.00;;;;;;5064920;28;20113;-38
2021/03/25 01:20:44;;;;;;;1.85;1.75;;;20.10;63.00;;;;;;5068307;28;20048;-38
2021/03/25 01:23:10;;;;;;;2.05;1.75;;;20.10;63.00;;;;;;5093519;28;20028;-38
2021/03/25 01:25:37;;;;;;;1.92;1.75;;;20.10;63.00;;;;;;5076782;28;20473;-38
2021/03/25 01:28:04;;;;;;;1.33;1.20;;;20.10;63.00;;;;;;5084774;28;20044;-38
2021/03/25 01:30:31;;;;;;;1.85;1.55;;;20.10;63.00;;;;;;5084521;28;20261;-38
2021/03/25 01:32:58;;;;;;;2.30;1.70;;;20.10;63.00;;;;;;5084744;28;20386;-39
2021/03/25 01:35:25;;;;;;;1.63;1.52;;;20.00;62.90;;;;;;5084698;28;20036;-38
2021/03/25 01:37:51;;;;;;;2.15;1.77;;;20.00;62.90;;;;;;5084287;28;20029;-38
2021/03/25 01:40:19;;;;;;;2.22;1.83;;;20.00;62.90;;;;;;5084413;28;20131;-39
2021/03/25 01:42:45;;;;;;;1.77;1.63;;;20.00;62.80;;;;;;5087032;28;20024;-38
2021/03/25 01:45:30;;;;;;;1.58;1.40;;;20.00;62.80;;;;;;5084480;28;20066;-38
2021/03/25 01:48:00;;;;;;;2.10;1.90;;;20.00;62.70;;;;;;5084487;28;20043;-38
2021/03/25 01:50:26;;;;;;;2.28;2.08;;;20.00;62.60;;;;;;5084139;28;20041;-38
2021/03/25 01:53:12;;;;;;;2.08;1.75;;;20.00;62.50;;;;;;5095685;28;20028;-38
2021/03/25 01:55:43;;;;;;;2.15;1.95;;;20.00;62.50;;;;;;5083071;28;20088;-39
2021/03/25 01:58:33;;;;;;;2.03;1.50;;;20.00;62.60;;;;;;5085568;28;20024;-39
2021/03/25 02:01:03;;;;;;;2.30;1.67;;;20.00;62.60;;;;;;5082829;28;20036;-38
2021/03/25 02:03:44;;;;;;;2.13;1.65;;;19.90;62.60;;;;;;5083989;28;20024;-38
2021/03/25 02:06:41;;;;;;;2.38;1.77;;;20.00;62.70;;;;;;5083919;28;20025;-39
2021/03/25 02:09:13;;;;;;;2.40;2.10;;;19.90;62.60;;;;;;5084100;28;20570;-38
2021/03/25 02:12:08;;;;;;;3.53;2.10;;;19.90;62.60;;;;;;5083766;28;20092;-38
2021/03/25 02:15:07;;;;;;;2.63;1.98;;;19.90;62.60;;;;;;5082808;28;20031;-38
2021/03/25 02:17:38;;;;;;;1.67;1.55;;;19.90;62.60;;;;;;5082297;28;20033;-38
2021/03/25 02:20:08;;;;;;;2.92;1.90;;;19.90;62.60;;;;;;5082525;28;20055;-39
2021/03/25 02:23:12;;;;;;;2.45;2.00;;;19.90;62.70;;;;;;5095139;28;20054;-38
2021/03/25 02:25:44;;;;;;;2.65;2.40;;;19.90;62.60;;;;;;5067806;28;20033;-39
2021/03/25 02:28:17;;;;;;;2.40;2.15;;;19.90;62.70;;;;;;5066495;28;20044;-38
2021/03/25 02:30:46;;;;;;;2.40;1.85;;;19.80;62.70;;;;;;5082146;28;20371;-38
2021/03/25 02:33:15;;;;;;;2.53;1.63;;;19.80;62.60;;;;;;5087487;28;20480;-38
2021/03/25 02:35:45;;;;;;;2.40;1.88;;;19.80;62.50;;;;;;5065908;28;20039;-39
2021/03/25 02:38:16;;;;;;;2.55;2.00;;;19.80;62.50;;;;;;5101946;28;20765;-38
2021/03/25 02:41:00;;;;;;;2.00;1.80;;;19.80;62.40;;;;;;5081907;28;20029;-39
2021/03/25 02:43:49;;;;;;;2.00;1.80;;;19.80;62.30;;;;;;5066175;28;20033;-38
2021/03/25 02:46:27;;;;;;;2.30;2.05;;;19.80;62.20;;;;;;5081961;28;20123;-38
2021/03/25 02:48:54;;;;;;;;;;;19.80;62.10;;;;;;5082498;28;20040;-39
2021/03/25 02:51:33;;;;;;;3.45;2.00;;;19.70;61.60;;;;;;5082895;28;19920;-38
2021/03/25 02:53:59;;;;;;;2.50;2.00;;;19.70;62.10;;;;;;5118466;27;20024;-38
2021/03/25 02:56:42;;;;;;;2.22;1.80;;;19.70;62.10;;;;;;5102068;28;20047;-38
2021/03/25 02:59:44;;;;;;;2.00;1.73;;;19.70;62.10;;;;;;5102286;28;20496;-38
2021/03/25 03:02:13;;;;;;;2.80;1.98;;;19.70;62.00;;;;;;5049616;28;20040;-39
2021/03/25 03:04:39;;;;;;;2.20;1.90;;;19.70;62.20;;;;;;5040641;28;20128;-38
2021/03/25 03:07:17;;;;;;;2.03;1.77;;;19.70;62.10;;;;;;5023671;28;20049;-38
2021/03/25 03:09:48;;;;;;;1.88;1.77;;;19.60;61.80;;;;;;5024134;28;20057;-39
2021/03/25 03:12:17;;;;;;;2.05;1.85;;;19.60;61.90;;;;;;5023596;28;20033;-38
2021/03/25 03:14:54;;;;;;;2.80;2.03;;;19.60;61.90;;;;;;5033846;28;20028;-39
2021/03/25 03:17:29;;;;;;;2.67;2.08;;;19.60;61.60;;;;;;5005241;28;20041;-38
2021/03/25 03:20:17;;;;;;;2.30;2.10;;;19.60;61.90;;;;;;5005392;28;20034;-38
2021/03/25 03:22:43;;;;;;;;;;;19.60;61.80;;;;;;5032027;28;20043;-38
2021/03/25 03:25:12;;;;;;;2.67;2.10;;;19.60;61.40;;;;;;5043715;28;19908;-38
2021/03/25 03:27:41;;;;;;;2.33;1.98;;;19.50;61.40;;;;;;5060132;28;20564;-38
2021/03/25 03:30:19;;;;;;;2.75;2.20;;;19.60;61.60;;;;;;5060138;28;20025;-38
2021/03/25 03:32:53;;;;;;;3.30;2.35;;;19.50;61.30;;;;;;5011973;28;20518;-38
2021/03/25 03:35:28;;;;;;;2.97;2.00;;;19.50;61.40;;;;;;5031162;28;20053;-39
2021/03/25 03:37:57;;;;;;;2.70;2.50;;;19.50;61.30;;;;;;5081451;28;20054;-38
2021/03/25 03:40:26;;;;;;;2.72;1.95;;;19.50;61.30;;;;;;5084182;28;20024;-39
2021/03/25 03:42:54;;;;;;;2.72;2.08;;;19.50;61.30;;;;;;5081198;28;20088;-39
2021/03/25 03:45:22;;;;;;;2.65;2.05;;;19.50;61.30;;;;;;5065148;28;20039;-38
2021/03/25 03:47:48;;;;;;;2.25;2.05;;;19.50;61.30;;;;;;5081582;28;20045;-39
2021/03/25 03:50:24;;;;;;;2.20;1.95;;;19.50;61.40;;;;;;5082876;28;20055;-38
2021/03/25 03:52:50;;;;;;;2.97;2.10;;;19.50;61.40;;;;;;5076789;28;20028;-38
2021/03/25 03:55:18;;;;;;;2.80;2.33;;;19.50;61.40;;;;;;5082628;28;20036;-38
2021/03/25 03:58:02;;;;;;;4.25;2.35;;;19.50;61.40;;;;;;5081979;28;20059;-38
2021/03/25 04:00:28;;;;;;;3.33;2.60;;;19.40;61.30;;;;;;5061702;28;20119;-38
2021/03/25 04:03:19;;;;;;;2.70;2.30;;;19.40;61.20;;;;;;5079172;28;20028;-38
2021/03/25 04:05:50;;;;;;;2.45;2.25;;;19.40;61.30;;;;;;5082514;28;20029;-38
2021/03/25 04:08:35;;;;;;;2.33;2.00;;;19.40;61.40;;;;;;5081119;28;20037;-38
2021/03/25 04:11:06;;;;;;;2.63;2.35;;;19.40;61.30;;;;;;5098607;28;20747;-43
2021/03/25 04:13:45;;;;;;;2.60;2.40;;;19.40;61.40;;;;;;5081512;28;20032;-38
2021/03/25 04:16:11;;;;;;;2.90;2.33;;;19.30;61.30;;;;;;5099721;28;20110;-39
2021/03/25 04:18:58;;;;;;;2.63;2.22;;;19.30;61.30;;;;;;5082782;28;20055;-38
2021/03/25 04:21:26;;;;;;;2.88;2.47;;;19.30;61.40;;;;;;5089699;28;20096;-38
2021/03/25 04:23:53;;;;;;;2.75;2.40;;;19.30;61.30;;;;;;5101021;28;20028;-38
2021/03/25 04:26:27;;;;;;;4.07;2.42;;;19.30;61.30;;;;;;5102009;28;20039;-38
2021/03/25 04:29:05;;;;;;;2.63;2.20;;;19.30;61.30;;;;;;5105067;28;20595;-38
2021/03/25 04:31:31;;;;;;;2.78;2.28;;;19.30;61.30;;;;;;5089371;28;20032;-39
2021/03/25 04:33:58;;;;;;;4.05;2.40;;;19.30;61.20;;;;;;5084708;28;20112;-38
2021/03/25 04:36:25;;;;;;;4.95;2.53;;;19.30;61.20;;;;;;5101780;28;20035;-39
2021/03/25 04:38:51;;;;;;;3.22;2.45;;;19.30;61.30;;;;;;5084605;28;20040;-38
2021/03/25 04:41:17;;;;;;;2.45;2.25;;;19.30;61.30;;;;;;5084657;28;20136;-38
2021/03/25 04:43:44;;;;;;;3.40;2.53;;;19.20;61.40;;;;;;5084138;28;20028;-38
2021/03/25 04:46:47;;;;;;;2.75;2.40;;;19.20;61.30;;;;;;5086085;28;20021;-38
2021/03/25 04:49:19;;;;;;;3.05;2.33;;;19.20;61.20;;;;;;5085770;28;20037;-38
2021/03/25 04:51:46;;;;;;;3.05;2.58;;;19.20;61.30;;;;;;5113312;27;20035;-38
2021/03/25 04:54:27;;;;;;;3.60;2.60;;;19.20;61.30;;;;;;5085342;28;20036;-39
2021/03/25 04:56:57;;;;;;;3.25;2.60;;;19.20;61.40;;;;;;5069068;28;20024;-38
2021/03/25 04:59:23;;;;;;;3.28;2.60;;;19.20;61.40;;;;;;5101302;28;20044;-39
2021/03/25 05:01:49;;;;;;;3.85;2.90;;;19.20;61.40;;;;;;5076153;28;20031;-39
2021/03/25 05:04:15;;;;;;;3.63;2.45;;;19.10;61.40;;;;;;5064188;28;20040;-41
2021/03/25 05:06:46;;;;;;;2.70;2.40;;;19.20;61.30;;;;;;5063981;28;20049;-38
2021/03/25 05:09:19;;;;;;;2.63;2.33;;;19.20;61.20;;;;;;5064102;28;20065;-39
2021/03/25 05:11:46;;;;;;;3.00;2.65;;;19.20;61.10;;;;;;5063767;28;20032;-38
2021/03/25 05:14:22;;;;;;;2.85;2.47;;;19.20;61.20;;;;;;5065138;28;20444;-39
2021/03/25 05:16:54;;;;;;;2.95;2.50;;;19.10;61.30;;;;;;5078597;28;20508;-39
2021/03/25 05:19:23;;;;;;;2.33;2.13;;;19.10;61.10;;;;;;5085255;28;20064;-38
2021/03/25 05:22:16;;;;;;;3.30;2.63;;;19.10;61.10;;;;;;5096256;28;20020;-38
2021/03/25 05:24:52;;;;;;;2.78;2.55;;;19.10;61.30;;;;;;5085027;28;20050;-38
2021/03/25 05:27:35;;;;;;;3.40;2.90;;;19.10;61.10;;;;;;5083804;28;20044;-38
2021/03/25 05:30:03;;;;;;;3.17;2.58;;;19.10;61.30;;;;;;5083739;28;20350;-38
2021/03/25 05:32:32;;;;;;;2.67;2.30;;;19.00;61.10;;;;;;5071325;28;20025;-38
2021/03/25 05:34:59;;;;;;;3.28;2.30;;;19.00;61.20;;;;;;5063588;28;20032;-38
2021/03/25 05:37:25;;;;;;;;;;;19.00;61.20;;;;;;5063748;28;20098;-38
2021/03/25 05:39:51;;;;;;;3.13;2.80;;;19.00;61.40;;;;;;5064896;28;20365;-38
2021/03/25 05:42:25;;;;;;;3.80;2.40;;;19.00;61.20;;;;;;5064404;28;20595;-39
2021/03/25 05:45:04;;;;;;;3.10;2.72;;;19.00;61.40;;;;;;5063521;28;20389;-38
2021/03/25 05:47:54;;;;;;;4.00;2.78;;;19.00;61.30;;;;;;5081999;28;20032;-38
2021/03/25 05:50:41;;;;;;;2.83;2.50;;;19.00;61.30;;;;;;5103652;28;20043;-38
2021/03/25 05:53:13;;;;;;;3.47;2.70;;;19.00;61.30;;;;;;5084986;28;20040;-38
2021/03/25 05:55:49;;;;;;;4.28;3.13;;;18.90;61.30;;;;;;5101343;28;20408;-38
2021/03/25 05:58:31;;;;;;;3.20;2.60;;;18.90;61.30;;;;;;5103589;28;20111;-39
2021/03/25 06:01:04;;;;;;;3.15;2.53;;;19.00;61.30;;;;;;5102618;28;20035;-38
2021/03/25 06:03:31;;;;;;;3.47;2.60;;;19.00;61.20;;;;;;5084039;28;20059;-38
2021/03/25 06:05:57;;;;;;;4.28;3.05;;;18.90;61.20;;;;;;5099746;28;20481;-39
2021/03/25 06:08:24;;;;;;;3.88;2.80;;;18.90;61.30;;;;;;5082856;28;20051;-38
2021/03/25 06:10:54;;;;;;;3.95;2.88;;;18.90;61.30;;;;;;5083593;28;20029;-38
2021/03/25 06:13:45;;;;;;;3.47;3.03;;;18.90;61.30;;;;;;5083993;28;20033;-38
2021/03/25 06:16:32;;;;;;;4.47;2.83;;;18.90;61.30;;;;;;5084131;28;20619;-39
2021/03/25 06:19:05;;;;;;;3.72;2.75;;;18.80;61.30;;;;;;5082799;28;20020;-38
2021/03/25 06:21:50;;;;;;;3.72;3.00;;;18.90;61.30;;;;;;5087594;28;20027;-39
2021/03/25 06:24:54;;;;;;;4.70;3.10;;;18.90;61.40;;;;;;5063419;28;20021;-38
2021/03/25 06:27:20;;;;;;;3.20;2.90;;;18.80;61.40;;;;;;5063707;28;20482;-38
2021/03/25 06:29:51;;;;;;;4.60;2.85;;;18.80;61.50;;;;;;5063821;28;20047;-38
2021/03/25 06:32:45;;;;;;;3.10;2.80;;;18.80;61.40;;;;;;5074126;28;20092;-38
2021/03/25 06:35:23;;;;;;;3.40;2.97;;;18.80;61.40;;;;;;5100778;28;20514;-38
2021/03/25 06:38:18;;;;;;;3.65;3.00;;;18.80;61.50;;;;;;5082547;28;20075;-39
2021/03/25 06:40:58;;;;;;;4.57;3.15;;;18.70;61.30;;;;;;5060748;28;20021;-38
2021/03/25 06:43:35;;;;;;;3.35;3.03;;;18.70;61.40;;;;;;5045337;28;20063;-38
2021/03/25 06:46:04;;;;;;;3.90;3.30;;;18.70;61.30;;;;;;5045774;28;20048;-38
2021/03/25 06:49:21;;;;;;;3.58;3.22;;;18.70;61.40;;;;;;5044056;28;20036;-38
2021/03/25 06:51:47;;;;;;;3.65;3.15;;;18.70;61.40;;;;;;5012409;28;20030;-39
2021/03/25 06:54:14;;;;;;;3.80;2.97;;;18.70;61.50;;;;;;5020490;28;20125;-38
2021/03/25 06:56:45;;;;;;;4.75;3.28;;;18.70;61.50;;;;;;5021123;28;20529;-38
2021/03/25 06:59:25;;;;;;;3.83;2.88;;;18.70;61.50;;;;;;5020891;28;20046;-38
2021/03/25 07:01:55;;;;;;;5.22;3.53;;;18.70;61.50;;;;;;4996366;28;20042;-38
2021/03/25 07:04:32;;;;;;;4.38;3.33;;;18.70;61.40;;;;;;5000980;28;20038;-38
2021/03/25 07:07:01;;;;;;;4.63;3.38;;;18.70;61.40;;;;;;5000890;28;20051;-38
2021/03/25 07:09:36;;;;;;;4.30;3.08;;;18.70;61.60;;;;;;5000972;28;20117;-38
2021/03/25 07:12:22;;;;;;;4.00;3.15;;;18.70;61.50;;;;;;5001035;28;20038;-38
2021/03/25 07:14:49;;;;;;;4.28;3.42;;;18.60;61.40;;;;;;5000893;28;20111;-38
2021/03/25 07:17:17;;;;;;;4.40;3.05;;;18.70;61.50;;;;;;5001122;28;20031;-38
2021/03/25 07:19:46;;;;;;;;;;;18.60;61.40;;;;;;5001561;28;20094;-38
2021/03/25 07:22:21;;;;;;;4.90;3.20;;;18.60;61.50;;;;;;5015393;28;19910;-38
2021/03/25 07:24:48;;;;;;;4.60;3.42;;;18.60;61.60;;;;;;5002580;28;20520;-38
2021/03/25 07:27:25;;;;;;;5.13;3.80;;;18.60;61.70;;;;;;5035923;28;20048;-38
2021/03/25 07:30:04;;;;;;;4.95;3.35;;;18.60;61.60;;;;;;5061435;28;20028;-38
2021/03/25 07:32:34;;;;;;;4.07;3.17;;;18.60;61.50;;;;;;5076634;28;20017;-38
2021/03/25 07:35:29;;;;;;;5.53;3.60;;;18.60;61.70;;;;;;5083029;28;20431;-38
2021/03/25 07:37:56;;;;;;;3.90;3.50;;;18.60;61.60;;;;;;5082897;28;20048;-38
2021/03/25 07:40:36;;;;;;;3.83;3.33;;;18.60;61.40;;;;;;5081377;28;20035;-38
2021/03/25 07:43:21;;;;;;;4.07;3.33;;;18.60;61.50;;;;;;5084931;28;20043;-38
2021/03/25 07:45:47;;;;;;;5.13;3.17;;;18.60;61.50;;;;;;5081544;28;20027;-38
2021/03/25 07:48:24;;;;;;;3.95;3.25;;;18.60;61.50;;;;;;5082874;28;20064;-38
2021/03/25 07:50:51;;;;;;;4.03;3.20;;;18.60;61.40;;;;;;5085740;28;20020;-38
2021/03/25 07:53:17;;;;;;;;;;;18.50;61.50;;;;;;5089797;28;20103;-38
2021/03/25 07:55:43;;;;;;;4.55;3.53;;;18.50;61.50;;;;;;5082769;28;19904;-38
2021/03/25 07:58:34;;;;;;;4.75;3.40;;;18.50;61.50;;;;;;5081389;28;20029;-38
2021/03/25 08:01:09;;;;;;;3.70;2.95;;;18.50;61.60;;;;;;5085867;28;20025;-38
2021/03/25 08:03:49;;;;;;;3.88;3.15;;;18.50;61.70;;;;;;5086366;28;20033;-37
2021/03/25 08:06:35;;;;;;;4.07;3.03;;;18.50;61.70;;;;;;5086449;28;20074;-38
2021/03/25 08:09:15;;;;;;;5.38;3.10;;;18.50;61.60;;;;;;5084836;28;20044;-38
2021/03/25 08:12:01;;;;;;;4.80;3.50;;;18.50;61.60;;;;;;5084338;28;20092;-38
2021/03/25 08:14:28;;;;;;;4.18;2.95;;;18.40;61.60;;;;;;5084325;28;20028;-38
2021/03/25 08:16:58;;;;;;;;;;;18.40;61.60;;;;;;5085377;28;20035;-37
2021/03/25 08:19:50;;;;;;;4.15;3.22;;;18.50;61.60;;;;;;5086233;28;19987;-38
2021/03/25 08:22:55;;;;;;;6.30;3.58;;;18.40;61.60;;;;;;5101482;28;20028;-38
2021/03/25 08:26:01;;;;;;;4.80;3.67;;;18.40;61.70;;;;;;5101520;28;20385;-38
2021/03/25 08:29:05;;;;;;;4.10;3.30;;;18.40;61.50;;;;;;5095860;28;20127;-38
2021/03/25 08:31:35;;;;;;;4.18;3.50;;;18.40;61.70;;;;;;5101025;28;20028;-38
2021/03/25 08:34:29;;;;;;;6.13;3.67;;;18.40;61.50;;;;;;5084420;28;20032;-38
2021/03/25 08:37:23;;;;;;;4.57;3.20;;;18.40;61.70;;;;;;5085926;28;20055;-38
2021/03/25 08:40:19;;;;;;;4.95;3.47;;;18.40;61.60;;;;;;5085660;28;20027;-38
2021/03/25 08:42:56;;;;;;;4.13;3.20;;;18.40;61.70;;;;;;5084450;28;20024;-37
2021/03/25 08:45:27;;;;;;;3.92;3.28;;;18.40;61.80;;;;;;5102311;28;20055;-38
2021/03/25 08:48:11;;;;;;;4.65;3.53;;;18.30;61.70;;;;;;5101784;28;20063;-38
2021/03/25 08:50:48;;;;;;;3.85;3.22;;;18.40;61.70;;;;;;5087325;28;20028;-38
2021/03/25 08:53:18;;;;;;;4.25;3.20;;;18.30;61.70;;;;;;5092272;28;20088;-37
2021/03/25 08:55:44;;;;;;;4.85;3.35;;;18.30;61.70;;;;;;5083882;28;20110;-37
2021/03/25 08:58:18;;;;;;;4.30;3.67;;;18.30;61.70;;;;;;5084121;28;20028;-36
2021/03/25 09:00:46;;;;;;;4.88;3.47;;;18.30;61.80;;;;;;5084113;28;20020;-37
2021/03/25 09:03:35;;;;;;;4.47;3.60;;;18.30;61.80;;;;;;5066141;28;20033;-36
2021/03/25 09:06:35;;;;;;;4.65;3.38;;;18.30;61.80;;;;;;5064826;28;20070;-37
2021/03/25 09:09:16;;;;;;;4.30;3.33;;;18.30;61.70;;;;;;5064688;28;20037;-36
2021/03/25 09:11:43;;;;;;;5.10;3.30;;;18.30;61.80;;;;;;5064733;28;20036;-36
2021/03/25 09:14:18;;;;;;;4.88;3.58;;;18.30;61.80;;;;;;5064774;28;20730;-36
2021/03/25 09:16:44;;;;;;;3.75;3.22;;;18.30;61.70;;;;;;5063440;28;20064;-37
2021/03/25 09:19:23;;;;;;;3.40;3.10;;;18.30;61.80;;;;;;5063796;28;20052;-36
2021/03/25 09:21:49;;;;;;;4.30;3.25;;;18.30;61.80;;;;;;5079485;28;20029;-36
2021/03/25 09:24:16;;;;;;;4.38;3.42;;;18.30;61.90;;;;;;5083830;28;20056;-36
2021/03/25 09:26:43;;;;;;;4.25;3.45;;;18.30;61.80;;;;;;5063355;28;20120;-37
2021/03/25 09:29:11;;;;;;;4.32;3.25;;;18.30;61.90;;;;;;5064745;28;20047;-36
2021/03/25 09:31:55;;;;;;;4.25;3.25;;;18.30;62.00;;;;;;5064562;28;20036;-37
2021/03/25 09:34:24;;;;;;;3.67;3.03;;;18.30;61.90;;;;;;5064892;28;20086;-37
2021/03/25 09:36:57;;;;;;;4.43;3.13;;;18.20;62.00;;;;;;5064697;28;20029;-37
2021/03/25 09:39:39;;;;;;;4.40;3.35;;;18.20;61.90;;;;;;5096754;28;20036;-36
2021/03/25 09:42:26;;;;;;;4.43;3.20;;;18.20;61.80;;;;;;5064558;28;20033;-36
2021/03/25 09:44:53;;;;;;;3.70;3.33;;;18.30;61.80;;;;;;5067782;28;20044;-36
2021/03/25 09:47:30;;;;;;;4.40;3.50;;;18.30;61.80;;;;;;5066577;28;20028;-36
2021/03/25 09:50:02;;;;;;;3.60;3.00;;;18.30;61.90;;;;;;5066614;28;20105;-35
2021/03/25 09:53:02;;;;;;;4.00;3.33;;;18.20;61.70;;;;;;5098285;28;20023;-37
2021/03/25 09:55:29;;;;;;;3.92;3.08;;;18.20;61.80;;;;;;5103005;28;20020;-37
2021/03/25 09:57:55;;;;;;;3.30;3.00;;;18.20;61.90;;;;;;5103302;28;20020;-37
2021/03/25 10:00:31;;;;;;;4.00;3.20;;;18.20;61.80;;;;;;5104571;28;20039;-37
2021/03/25 10:02:58;;;;;;;3.83;3.42;;;18.20;61.80;;;;;;5086986;28;20058;-36
2021/03/25 10:05:28;;;;;;;3.97;3.30;;;18.20;61.70;;;;;;5082670;28;20048;-37
2021/03/25 10:08:05;;;;;;;4.18;3.17;;;18.20;61.80;;;;;;5083915;28;20079;-37
2021/03/25 10:10:50;;;;;;;3.67;3.00;;;18.20;61.70;;;;;;5082398;28;20050;-37
2021/03/25 10:13:32;;;;;;;3.58;3.03;;;18.20;61.60;;;;;;5083940;28;20028;-37
2021/03/25 10:16:00;;;;;;;5.00;3.05;;;18.20;61.70;;;;;;5083054;28;20016;-37
2021/03/25 10:18:26;;;;;;;3.75;3.08;;;18.20;61.80;;;;;;5083848;28;20033;-36
2021/03/25 10:21:07;;;;;;;5.63;3.30;;;18.20;61.80;;;;;;5087553;28;20024;-37
2021/03/25 10:23:51;;;;;;;3.90;3.08;;;18.20;61.70;;;;;;5101666;28;20116;-36
2021/03/25 10:26:40;;;;;;;3.70;3.03;;;18.20;61.60;;;;;;5063303;28;20031;-36
2021/03/25 10:29:13;;;;;;;3.30;3.00;;;18.20;61.70;;;;;;5063479;28;20037;-36
2021/03/25 10:31:46;;;;;;;3.50;2.90;;;18.20;61.80;;;;;;5068800;28;20020;-36
2021/03/25 10:34:16;;;;;;;3.58;3.03;;;18.20;61.90;;;;;;5083668;28;20028;-38
2021/03/25 10:36:49;;;;;;;4.10;3.00;;;18.10;61.90;;;;;;5082482;28;20469;-37
2021/03/25 10:39:35;;;;;;;4.25;3.13;;;18.20;61.90;;;;;;5062199;28;20076;-37
2021/03/25 10:42:26;;;;;;;5.03;3.10;;;18.10;61.80;;;;;;5062205;28;20028;-37
2021/03/25 10:44:53;;;;;;;3.67;3.05;;;18.10;61.90;;;;;;5063307;28;20029;-38
2021/03/25 10:47:31;;;;;;;3.90;3.03;;;18.10;62.00;;;;;;5061453;28;20036;-36
2021/03/25 10:50:00;;;;;;;;;;;18.10;62.00;;;;;;5078899;28;20033;-38
2021/03/25 10:52:35;;;;;;;4.50;3.40;;;18.10;61.90;;;;;;5091452;28;19937;-36
2021/03/25 10:55:18;;;;;;;3.85;3.05;;;18.10;62.10;;;;;;5083096;28;20036;-36
2021/03/25 10:57:49;;;;;;;4.10;3.15;;;18.10;62.10;;;;;;5081600;28;20028;-36
2021/03/25 11:00:29;;;;;;;4.10;3.00;;;18.10;62.10;;;;;;5082047;28;20161;-36
2021/03/25 11:02:55;;;;;;;4.03;3.20;;;18.10;62.10;;;;;;5081841;28;20036;-36
2021/03/25 11:05:26;;;;;;;4.47;3.28;;;18.10;62.10;;;;;;5081824;28;20021;-35
2021/03/25 11:08:00;;;;;;;3.50;3.20;;;18.00;62.00;;;;;;5082476;28;20048;-36
2021/03/25 11:10:34;;;;;;;3.67;3.00;;;18.10;62.10;;;;;;5082961;28;20029;-36
2021/03/25 11:13:13;;;;;;;5.40;3.20;;;18.10;62.00;;;;;;5082181;28;20021;-36
2021/03/25 11:15:45;;;;;;;4.40;3.60;;;18.10;62.00;;;;;;5062790;28;20032;-36
2021/03/25 11:18:33;;;;;;;3.72;2.88;;;18.10;61.90;;;;;;5061151;28;20052;-36
2021/03/25 11:21:00;;;;;;;3.60;3.30;;;18.10;61.90;;;;;;5071026;28;20032;-36
2021/03/25 11:23:26;;;;;;;4.05;3.00;;;18.10;62.00;;;;;;5089442;28;20027;-36
2021/03/25 11:26:00;;;;;;;4.45;3.38;;;18.10;62.00;;;;;;5081416;28;20060;-36
2021/03/25 11:28:28;;;;;;;3.38;3.00;;;18.10;62.00;;;;;;5081048;28;20044;-36
2021/03/25 11:30:56;;;;;;;;;;;18.10;62.10;;;;;;5082040;28;20433;-36
2021/03/25 11:33:32;;;;;;;;;;;18.00;62.10;;;;;;5083288;28;20345;-36
2021/03/25 11:36:00;;;;;;;3.25;2.58;;;18.00;62.20;;;;;;5084685;28;19904;-36
2021/03/25 11:38:26;;;;;;;3.42;2.83;;;18.00;62.30;;;;;;5086584;28;20028;-36
2021/03/25 11:40:54;;;;;;;4.07;3.20;;;18.00;62.30;;;;;;5086585;28;20024;-36
2021/03/25 11:43:38;;;;;;;3.83;2.67;;;18.00;62.30;;;;;;5086821;28;20031;-36
2021/03/25 11:46:04;;;;;;;3.65;3.20;;;18.00;62.40;;;;;;5106751;28;20028;-36
2021/03/25 11:48:32;;;;;;;5.05;3.33;;;18.00;62.30;;;;;;5106713;28;20224;-36
2021/03/25 11:51:19;;;;;;;3.83;3.10;;;18.00;62.40;;;;;;5102329;28;20016;-36
2021/03/25 11:53:46;;;;;;;4.13;3.40;;;18.00;62.40;;;;;;5099547;28;20031;-36
2021/03/25 11:56:37;;;;;;;4.10;3.38;;;18.00;62.30;;;;;;5105404;28;20081;-36
2021/03/25 11:59:04;;;;;;;3.90;3.20;;;18.00;62.20;;;;;;5106430;28;20024;-36
2021/03/25 12:01:32;;;;;;;3.17;2.88;;;18.00;62.30;;;;;;5105349;28;20020;-36
2021/03/25 12:03:59;;;;;;;3.53;3.10;;;18.00;62.20;;;;;;5105313;28;20103;-36
2021/03/25 12:06:36;;;;;;;3.50;3.17;;;18.00;62.20;;;;;;5106439;28;20048;-35
2021/03/25 12:09:08;;;;;;;3.50;2.90;;;18.00;62.30;;;;;;5106356;28;20040;-36
2021/03/25 12:11:35;;;;;;;4.57;3.05;;;18.00;62.30;;;;;;5106302;28;20877;-36
2021/03/25 12:14:02;;;;;;;4.60;3.25;;;18.00;62.30;;;;;;5105264;28;20631;-36
2021/03/25 12:16:28;;;;;;;4.28;3.25;;;18.00;62.30;;;;;;5086262;28;20060;-37
2021/03/25 12:18:55;;;;;;;4.20;3.33;;;18.00;62.30;;;;;;5084437;28;20028;-37
2021/03/25 12:21:23;;;;;;;3.67;3.08;;;18.00;62.30;;;;;;5076096;28;20388;-37
2021/03/25 12:23:52;;;;;;;3.55;3.25;;;18.00;62.30;;;;;;5087966;28;20038;-37
2021/03/25 12:26:18;;;;;;;4.10;3.47;;;18.00;62.30;;;;;;5084692;28;20024;-37
2021/03/25 12:28:44;;;;;;;3.65;3.35;;;18.00;62.40;;;;;;5085502;28;20044;-37
2021/03/25 12:31:21;;;;;;;3.85;3.10;;;18.00;62.40;;;;;;5083995;28;20477;-37
2021/03/25 12:33:48;;;;;;;4.00;3.05;;;18.00;62.50;;;;;;5082667;28;20029;-37
2021/03/25 12:36:14;;;;;;;3.83;3.00;;;18.00;62.60;;;;;;5084548;28;20036;-37
2021/03/25 12:38:41;;;;;;;4.20;3.67;;;18.00;62.50;;;;;;5085673;28;20028;-37
2021/03/25 12:41:18;;;;;;;3.58;3.08;;;18.00;62.60;;;;;;5085325;28;20296;-37
2021/03/25 12:43:45;;;;;;;4.97;3.25;;;18.00;62.60;;;;;;5084301;28;20036;-37
2021/03/25 12:46:11;;;;;;;3.58;3.10;;;18.00;62.60;;;;;;5085869;28;20253;-37
2021/03/25 12:48:37;;;;;;;3.70;3.22;;;18.00;62.60;;;;;;5084226;28;20028;-37
2021/03/25 12:51:05;;;;;;;4.82;2.95;;;18.00;62.60;;;;;;5085629;28;20031;-37
2021/03/25 12:53:31;;;;;;;4.07;3.30;;;18.00;62.60;;;;;;5099712;28;20031;-37
2021/03/25 12:55:58;;;;;;;3.53;3.10;;;18.00;62.60;;;;;;5105580;28;20404;-37
2021/03/25 12:58:25;;;;;;;4.75;3.65;;;18.00;62.60;;;;;;5104042;28;20036;-36
2021/03/25 13:00:51;;;;;;;;;;;18.00;62.60;;;;;;5104629;28;20024;-37
2021/03/25 13:03:17;;;;;;;3.55;2.97;;;18.00;62.60;;;;;;5083941;28;20333;-37
2021/03/25 13:05:44;;;;;;;3.35;3.05;;;18.00;62.60;;;;;;5085252;28;20132;-37
2021/03/25 13:08:10;;;;;;;3.33;3.03;;;18.00;62.60;;;;;;5084640;28;20061;-37
2021/03/25 13:10:37;;;;;;;3.67;3.07;;;18.00;62.60;;;;;;5083806;28;20029;-37
2021/03/25 13:13:03;;;;;;;3.47;2.70;;;18.00;63.40;;;;;;5085035;28;20063;-36
2021/03/25 13:15:29;;;;;;;4.35;3.17;;;18.00;62.70;;;;;;5084993;28;20020;-36
2021/03/25 13:17:55;;;;;;;3.40;3.10;;;18.00;62.70;;;;;;5084885;28;20036;-37
2021/03/25 13:20:23;;;;;;;4.43;3.35;;;18.00;62.70;;;;;;5084803;28;20021;-37
2021/03/25 13:22:50;;;;;;;3.70;3.30;;;18.00;62.80;;;;;;5093577;28;20066;-37
2021/03/25 13:25:33;;;;;;;4.00;3.60;;;18.00;62.80;;;;;;5105047;28;20024;-36